createdAt,value
2023-03-20T00:00:55.861Z,11.25
2023-03-20T00:01:57.544Z,10.75
2023-03-20T00:03:00.263Z,12.25
2023-03-20T00:04:02.077Z,10.50
2023-03-20T00:05:15.519Z,9.25
2023-03-20T00:06:17.521Z,9.00
2023-03-20T00:07:20.299Z,10.75
2023-03-20T00:08:22.489Z,9.00
2023-03-20T00:09:25.685Z,10.75
2023-03-20T00:10:31.897Z,11.00
2023-03-20T00:11:36.252Z,10.75
2023-03-20T00:12:38.118Z,11.25
2023-03-20T00:13:41.006Z,12.25
2023-03-20T00:14:42.695Z,12.00
2023-03-20T00:15:45.555Z,11.00
2023-03-20T00:16:47.826Z,11.50
2023-03-20T00:17:50.488Z,12.25
2023-03-20T00:18:52.930Z,12.00
2023-03-20T00:19:55.684Z,11.25
2023-03-20T00:20:57.331Z,11.75
2023-03-20T00:22:00.005Z,12.00
2023-03-20T00:23:04.131Z,13.00
2023-03-20T00:24:06.761Z,11.50
2023-03-20T00:25:11.250Z,12.00
2023-03-20T00:26:14.407Z,14.75
2023-03-20T00:27:17.330Z,13.00
2023-03-20T00:28:30.550Z,13.50
2023-03-20T00:29:34.268Z,12.00
2023-03-20T00:30:36.013Z,12.00
2023-03-20T00:31:39.341Z,12.50
2023-03-20T00:32:41.823Z,12.75
2023-03-20T00:33:45.441Z,15.00
2023-03-20T00:34:47.089Z,13.75
2023-03-20T00:35:49.813Z,12.75
2023-03-20T00:36:51.694Z,13.75
2023-03-20T00:37:54.457Z,13.25
2023-03-20T00:38:57.775Z,15.00
2023-03-20T00:40:00.440Z,16.25
2023-03-20T00:41:02.111Z,15.00
2023-03-20T00:42:07.092Z,16.00
2023-03-20T00:43:09.434Z,16.25
2023-03-20T00:44:21.514Z,17.25
2023-03-20T00:45:23.169Z,18.00
2023-03-20T00:46:25.894Z,18.25
2023-03-20T00:47:27.632Z,19.50
2023-03-20T00:48:30.588Z,18.50
2023-03-20T00:49:33.257Z,18.50
2023-03-20T00:50:35.908Z,17.50
2023-03-20T00:51:38.135Z,19.00
2023-03-20T00:52:40.791Z,21.00
2023-03-20T00:53:42.458Z,21.50
2023-03-20T00:54:45.195Z,18.25
2023-03-20T00:55:46.864Z,21.50
2023-03-20T00:56:51.881Z,21.75
2023-03-20T00:57:55.911Z,23.50
2023-03-20T00:58:58.817Z,20.75
2023-03-20T01:00:01.870Z,19.75
2023-03-20T01:01:04.609Z,22.25
2023-03-20T01:02:06.714Z,22.00
2023-03-20T01:03:14.822Z,22.50
2023-03-20T01:04:17.978Z,20.25
2023-03-20T01:05:20.733Z,23.00
2023-03-20T01:06:23.399Z,24.25
2023-03-20T01:07:25.048Z,25.00
2023-03-20T01:08:27.686Z,21.75
2023-03-20T01:09:29.417Z,23.75
2023-03-20T01:10:32.100Z,25.00
2023-03-20T01:11:33.936Z,25.50
2023-03-20T01:12:36.568Z,23.25
2023-03-20T01:13:39.567Z,24.00
2023-03-20T01:14:42.261Z,25.00
2023-03-20T01:15:44.139Z,26.00
2023-03-20T01:16:46.879Z,27.00
2023-03-20T01:17:48.816Z,24.25
2023-03-20T01:18:51.541Z,24.50
2023-03-20T01:19:53.255Z,27.75
2023-03-20T01:20:55.887Z,28.00
2023-03-20T01:21:57.549Z,21.75
2023-03-20T01:23:00.195Z,25.25
2023-03-20T01:24:01.914Z,26.25
2023-03-20T01:25:04.860Z,26.00
2023-03-20T01:26:10.675Z,26.75
2023-03-20T01:27:14.603Z,25.25
2023-03-20T01:28:18.261Z,25.00
2023-03-20T01:29:23.178Z,26.50
2023-03-20T01:30:26.141Z,26.75
2023-03-20T01:31:28.846Z,23.00
2023-03-20T01:32:30.552Z,27.50
2023-03-20T01:33:33.176Z,25.50
2023-03-20T01:34:34.847Z,26.00
2023-03-20T01:35:37.722Z,25.25
2023-03-20T01:36:39.501Z,26.25
2023-03-20T01:37:42.176Z,24.25
2023-03-20T01:38:44.798Z,28.75
2023-03-20T01:39:46.481Z,26.75
2023-03-20T01:40:52.534Z,28.00
2023-03-20T01:41:54.217Z,24.75
2023-03-20T01:42:57.222Z,24.50
2023-03-20T01:43:58.874Z,24.75
2023-03-20T01:45:03.403Z,25.00
2023-03-20T01:46:18.883Z,24.75
2023-03-20T01:47:23.436Z,25.75
2023-03-20T01:48:27.148Z,25.50
2023-03-20T01:50:09.374Z,25.00
2023-03-20T01:51:11.999Z,28.00
2023-03-20T01:52:13.697Z,24.00
2023-03-20T01:53:17.632Z,26.25
2023-03-20T01:54:20.842Z,25.50
2023-03-20T01:55:23.517Z,28.75
2023-03-20T01:56:25.369Z,28.50
2023-03-20T01:57:28.010Z,29.50
2023-03-20T01:58:32.454Z,30.75
2023-03-20T01:59:36.533Z,28.00
2023-03-20T02:00:39.628Z,29.00
2023-03-20T02:01:42.700Z,29.50
2023-03-20T02:02:45.028Z,30.00
2023-03-20T02:03:49.471Z,31.25
2023-03-20T02:04:54.196Z,31.50
2023-03-20T02:05:57.128Z,31.50
2023-03-20T02:06:58.812Z,31.75
2023-03-20T02:08:07.199Z,32.25
2023-03-20T02:09:08.873Z,32.75
2023-03-20T02:10:12.532Z,32.00
2023-03-20T02:11:14.175Z,30.50
2023-03-20T02:12:16.924Z,29.25
2023-03-20T02:13:18.618Z,32.25
2023-03-20T02:14:21.521Z,31.25
2023-03-20T02:15:27.199Z,29.75
2023-03-20T02:16:31.349Z,31.25
2023-03-20T02:17:33.123Z,28.75
2023-03-20T02:18:35.932Z,31.00
2023-03-20T02:19:42.073Z,32.00
2023-03-20T02:20:49.569Z,33.25
2023-03-20T02:22:21.954Z,29.00
2023-03-20T02:24:01.468Z,29.75
2023-03-20T02:25:42.506Z,30.75
2023-03-20T02:26:50.408Z,30.75
2023-03-20T02:28:03.577Z,28.75
2023-03-20T02:29:35.681Z,27.50
2023-03-20T02:30:46.884Z,22.25
2023-03-20T02:32:19.747Z,24.75
2023-03-20T02:33:51.021Z,22.00
2023-03-20T02:35:07.475Z,19.75
2023-03-20T02:36:34.469Z,22.75
2023-03-20T02:37:58.702Z,25.25
2023-03-20T02:39:09.724Z,20.25
2023-03-20T02:40:16.245Z,18.00
2023-03-20T02:41:23.115Z,21.50
2023-03-20T02:42:28.931Z,19.75
2023-03-20T02:43:36.311Z,21.50
2023-03-20T02:44:40.188Z,22.75
2023-03-20T02:45:48.447Z,17.75
2023-03-20T02:46:54.433Z,20.25
2023-03-20T02:48:01.049Z,18.50
2023-03-20T02:49:05.090Z,18.50
2023-03-20T02:50:13.449Z,18.25
2023-03-20T02:51:16.433Z,16.50
2023-03-20T02:52:21.099Z,19.00
2023-03-20T02:53:31.562Z,21.25
2023-03-20T02:54:36.020Z,18.25
2023-03-20T02:55:40.000Z,16.25
2023-03-20T02:56:48.320Z,18.75
2023-03-20T02:57:52.996Z,20.00
2023-03-20T02:58:59.038Z,18.50
2023-03-20T03:00:04.980Z,17.75
2023-03-20T03:01:11.279Z,17.50
2023-03-20T03:02:14.221Z,17.00
2023-03-20T03:03:19.272Z,15.75
2023-03-20T03:04:22.335Z,15.75
2023-03-20T03:05:26.612Z,18.75
2023-03-20T03:06:29.708Z,15.00
2023-03-20T03:07:34.147Z,16.00
2023-03-20T03:08:38.078Z,19.50
2023-03-20T03:09:42.837Z,17.00
2023-03-20T03:10:45.231Z,16.25
2023-03-20T03:11:50.500Z,13.75
2023-03-20T03:12:52.485Z,14.00
2023-03-20T03:13:56.118Z,17.00
2023-03-20T03:14:59.974Z,16.75
2023-03-20T03:16:05.518Z,14.50
2023-03-20T03:17:07.752Z,16.00
2023-03-20T03:18:12.643Z,16.25
2023-03-20T03:19:15.555Z,16.00
2023-03-20T03:20:22.214Z,16.00
2023-03-20T03:21:23.866Z,14.75
2023-03-20T03:22:26.519Z,19.25
2023-03-20T03:23:29.697Z,15.25
2023-03-20T03:24:40.766Z,14.75
2023-03-20T03:25:43.155Z,17.50
2023-03-20T03:26:45.786Z,16.00
2023-03-20T03:27:48.544Z,15.25
2023-03-20T03:28:52.656Z,16.00
2023-03-20T03:29:55.598Z,15.00
2023-03-20T03:30:58.505Z,15.50
2023-03-20T03:32:01.256Z,16.00
2023-03-20T03:33:10.928Z,16.50
2023-03-20T03:34:13.719Z,15.25
2023-03-20T03:35:17.342Z,15.25
2023-03-20T03:36:23.681Z,13.25
2023-03-20T03:37:32.127Z,17.00
2023-03-20T03:38:36.540Z,13.25
2023-03-20T03:39:42.196Z,15.50
2023-03-20T03:40:44.721Z,16.25
2023-03-20T03:41:48.197Z,16.00
2023-03-20T03:42:53.679Z,15.25
2023-03-20T03:44:00.961Z,15.75
2023-03-20T03:45:03.743Z,16.00
2023-03-20T03:46:07.888Z,16.75
2023-03-20T03:47:11.464Z,16.75
2023-03-20T03:48:15.448Z,15.75
2023-03-20T03:49:19.030Z,15.25
2023-03-20T03:50:22.835Z,15.75
2023-03-20T03:51:25.803Z,16.00
2023-03-20T03:52:28.440Z,15.25
2023-03-20T03:53:31.699Z,14.25
2023-03-20T03:54:36.828Z,16.00
2023-03-20T03:55:40.942Z,16.50
2023-03-20T03:56:44.329Z,16.00
2023-03-20T03:57:46.878Z,16.00
2023-03-20T03:58:50.526Z,16.75
2023-03-20T03:59:52.158Z,15.75
2023-03-20T04:00:55.907Z,16.00
2023-03-20T04:01:57.551Z,15.00
2023-03-20T04:03:00.227Z,16.25
2023-03-20T04:04:04.927Z,16.25
2023-03-20T04:05:08.069Z,15.75
2023-03-20T04:06:11.488Z,14.75
2023-03-20T04:07:14.716Z,16.75
2023-03-20T04:08:16.496Z,14.75
2023-03-20T04:09:19.121Z,16.00
2023-03-20T04:10:20.862Z,16.50
2023-03-20T04:11:25.919Z,16.25
2023-03-20T04:12:37.962Z,17.00
2023-03-20T04:13:40.551Z,15.50
2023-03-20T04:14:42.153Z,15.75
2023-03-20T04:15:44.775Z,16.25
2023-03-20T04:16:47.138Z,16.00
2023-03-20T04:17:49.806Z,19.00
2023-03-20T04:18:51.549Z,16.00
2023-03-20T04:19:54.124Z,15.00
2023-03-20T04:20:56.778Z,16.00
2023-03-20T04:21:58.398Z,15.00
2023-03-20T04:23:02.067Z,16.00
2023-03-20T04:24:03.978Z,15.50
2023-03-20T04:25:07.272Z,17.00
2023-03-20T04:26:08.872Z,15.75
2023-03-20T04:27:12.824Z,16.50
2023-03-20T04:28:16.692Z,14.75
2023-03-20T04:29:19.320Z,16.25
2023-03-20T04:30:20.940Z,16.00
2023-03-20T04:31:23.547Z,16.00
2023-03-20T04:32:25.337Z,15.75
2023-03-20T04:33:28.055Z,17.00
2023-03-20T04:34:29.674Z,17.00
2023-03-20T04:35:32.251Z,18.75
2023-03-20T04:36:34.862Z,18.50
2023-03-20T04:37:36.571Z,16.50
2023-03-20T04:38:39.392Z,16.00
2023-03-20T04:39:42.355Z,18.50
2023-03-20T04:40:45.267Z,17.75
2023-03-20T04:41:47.272Z,19.75
2023-03-20T04:42:51.354Z,19.75
2023-03-20T04:43:52.992Z,16.25
2023-03-20T04:44:55.588Z,17.75
2023-03-20T04:45:57.217Z,19.00
2023-03-20T04:46:59.832Z,18.75
2023-03-20T04:48:01.815Z,18.50
2023-03-20T04:49:04.444Z,21.75
2023-03-20T04:50:07.141Z,21.25
2023-03-20T04:51:09.746Z,17.50
2023-03-20T04:52:11.351Z,18.75
2023-03-20T04:53:13.934Z,17.75
2023-03-20T04:54:15.871Z,19.00
2023-03-20T04:55:18.592Z,17.00
2023-03-20T04:56:20.316Z,19.00
2023-03-20T04:57:22.904Z,17.00
2023-03-20T04:58:25.952Z,17.00
2023-03-20T04:59:28.683Z,19.50
2023-03-20T05:00:30.476Z,17.00
2023-03-20T05:01:33.109Z,16.75
2023-03-20T05:02:34.749Z,15.75
2023-03-20T05:03:37.334Z,18.25
2023-03-20T05:04:39.132Z,16.00
2023-03-20T05:05:41.740Z,19.00
2023-03-20T05:06:43.932Z,19.50
2023-03-20T05:07:46.518Z,16.25
2023-03-20T05:08:48.445Z,17.50
2023-03-20T05:09:51.094Z,18.75
2023-03-20T05:10:53.702Z,17.75
2023-03-20T05:11:55.352Z,17.75
2023-03-20T05:12:57.959Z,21.00
2023-03-20T05:14:00.973Z,18.25
2023-03-20T05:15:03.639Z,22.00
2023-03-20T05:16:05.963Z,15.75
2023-03-20T05:17:08.553Z,20.75
2023-03-20T05:18:10.573Z,18.00
2023-03-20T05:19:13.174Z,19.50
2023-03-20T05:20:15.434Z,23.50
2023-03-20T05:21:18.029Z,18.50
2023-03-20T05:22:19.671Z,16.50
2023-03-20T05:23:22.245Z,19.25
2023-03-20T05:24:23.864Z,20.00
2023-03-20T05:25:26.647Z,20.25
2023-03-20T05:26:28.268Z,19.50
2023-03-20T05:27:30.902Z,19.50
2023-03-20T05:28:32.563Z,17.75
2023-03-20T05:29:36.513Z,20.75
2023-03-20T05:30:38.447Z,17.75
2023-03-20T05:31:41.278Z,19.00
2023-03-20T05:32:43.709Z,20.00
2023-03-20T05:33:46.480Z,16.50
2023-03-20T05:34:48.088Z,17.75
2023-03-20T05:35:50.796Z,17.00
2023-03-20T05:36:52.421Z,16.25
2023-03-20T05:37:55.061Z,16.00
2023-03-20T05:38:57.058Z,18.25
2023-03-20T05:39:59.636Z,17.25
2023-03-20T05:41:01.476Z,18.50
2023-03-20T05:42:04.253Z,17.00
2023-03-20T05:43:06.104Z,17.75
2023-03-20T05:44:08.688Z,15.00
2023-03-20T05:45:11.946Z,18.25
2023-03-20T05:46:14.576Z,13.75
2023-03-20T05:47:16.458Z,18.75
2023-03-20T05:48:19.057Z,16.00
2023-03-20T05:49:20.684Z,17.75
2023-03-20T05:50:23.269Z,16.00
2023-03-20T05:51:24.998Z,15.50
2023-03-20T05:52:27.687Z,18.75
2023-03-20T05:53:29.292Z,17.00
2023-03-20T05:54:32.488Z,17.00
2023-03-20T05:55:34.377Z,15.50
2023-03-20T05:56:37.386Z,17.50
2023-03-20T05:57:39.015Z,15.50
2023-03-20T05:58:42.250Z,18.25
2023-03-20T05:59:43.975Z,17.00
2023-03-20T06:00:47.917Z,18.50
2023-03-20T06:01:49.685Z,16.25
2023-03-20T06:02:52.368Z,16.00
2023-03-20T06:03:54.077Z,17.25
2023-03-20T06:04:56.701Z,15.75
2023-03-20T06:05:58.312Z,15.50
2023-03-20T06:07:01.041Z,17.75
2023-03-20T06:08:02.671Z,15.50
2023-03-20T06:09:05.307Z,16.50
2023-03-20T06:10:07.642Z,16.00
2023-03-20T06:11:10.328Z,16.00
2023-03-20T06:12:12.627Z,18.75
2023-03-20T06:13:15.308Z,17.00
2023-03-20T06:14:16.911Z,16.25
2023-03-20T06:15:19.514Z,16.50
2023-03-20T06:16:22.511Z,17.25
2023-03-20T06:17:25.342Z,17.75
2023-03-20T06:18:27.128Z,16.75
2023-03-20T06:19:29.916Z,18.50
2023-03-20T06:20:31.596Z,17.50
2023-03-20T06:21:34.187Z,19.75
2023-03-20T06:22:35.986Z,16.25
2023-03-20T06:23:38.647Z,15.75
2023-03-20T06:24:40.266Z,18.00
2023-03-20T06:25:43.703Z,17.25
2023-03-20T06:26:45.452Z,16.00
2023-03-20T06:27:48.547Z,17.75
2023-03-20T06:28:50.184Z,18.50
2023-03-20T06:29:52.774Z,17.75
2023-03-20T06:30:54.492Z,16.75
2023-03-20T06:31:58.488Z,17.25
2023-03-20T06:33:00.199Z,16.75
2023-03-20T06:34:02.908Z,16.50
2023-03-20T06:35:05.829Z,18.75
2023-03-20T06:36:08.985Z,16.00
2023-03-20T06:37:10.925Z,16.00
2023-03-20T06:38:13.626Z,19.00
2023-03-20T06:39:15.343Z,20.00
2023-03-20T06:40:18.080Z,14.25
2023-03-20T06:41:33.877Z,16.25
2023-03-20T06:42:37.479Z,16.75
2023-03-20T06:43:39.640Z,16.00
2023-03-20T06:44:42.218Z,18.75
2023-03-20T06:45:43.863Z,20.00
2023-03-20T06:46:46.456Z,16.25
2023-03-20T06:47:49.420Z,18.50
2023-03-20T06:48:52.366Z,16.25
2023-03-20T06:49:54.963Z,19.25
2023-03-20T06:50:57.135Z,17.00
2023-03-20T06:51:59.983Z,17.50
2023-03-20T06:53:01.601Z,15.75
2023-03-20T06:54:04.230Z,19.00
2023-03-20T06:55:06.695Z,17.00
2023-03-20T06:56:10.727Z,19.75
2023-03-20T06:57:15.284Z,17.00
2023-03-20T06:58:17.142Z,20.50
2023-03-20T06:59:19.847Z,17.75
2023-03-20T07:00:22.050Z,17.75
2023-03-20T07:01:24.769Z,17.75
2023-03-20T07:02:26.419Z,22.00
2023-03-20T07:03:30.926Z,17.75
2023-03-20T07:04:32.777Z,20.50
2023-03-20T07:05:35.734Z,16.00
2023-03-20T07:06:37.881Z,20.50
2023-03-20T07:07:40.652Z,17.75
2023-03-20T07:08:42.311Z,19.25
2023-03-20T07:09:45.240Z,17.75
2023-03-20T07:10:46.918Z,18.25
2023-03-20T07:11:49.578Z,19.50
2023-03-20T07:12:51.211Z,17.75
2023-03-20T07:13:53.933Z,16.00
2023-03-20T07:14:56.081Z,20.50
2023-03-20T07:16:04.609Z,16.00
2023-03-20T07:17:06.851Z,19.25
2023-03-20T07:18:09.453Z,17.50
2023-03-20T07:19:13.509Z,19.75
2023-03-20T07:20:16.314Z,17.50
2023-03-20T07:21:20.302Z,18.50
2023-03-20T07:22:23.649Z,20.00
2023-03-20T07:23:25.557Z,19.00
2023-03-20T07:24:28.156Z,19.75
2023-03-20T07:25:41.971Z,21.75
2023-03-20T07:26:45.832Z,22.00
2023-03-20T07:27:50.712Z,22.50
2023-03-20T07:28:52.395Z,16.25
2023-03-20T07:29:55.024Z,19.25
2023-03-20T07:30:57.191Z,18.75
2023-03-20T07:32:00.998Z,16.75
2023-03-20T07:33:03.642Z,20.50
2023-03-20T07:34:06.654Z,19.25
2023-03-20T07:35:10.981Z,16.00
2023-03-20T07:36:13.650Z,18.50
2023-03-20T07:37:17.197Z,17.75
2023-03-20T07:38:19.763Z,19.00
2023-03-20T07:39:21.571Z,18.50
2023-03-20T07:40:24.175Z,16.00
2023-03-20T07:41:25.899Z,18.50
2023-03-20T07:42:28.676Z,19.50
2023-03-20T07:43:30.351Z,19.00
2023-03-20T07:44:33.001Z,17.75
2023-03-20T07:45:34.778Z,15.00
2023-03-20T07:46:37.580Z,16.00
2023-03-20T07:47:40.338Z,18.50
2023-03-20T07:48:41.984Z,18.50
2023-03-20T07:49:44.559Z,18.50
2023-03-20T07:50:47.605Z,19.75
2023-03-20T07:51:50.561Z,15.00
2023-03-20T07:52:53.193Z,17.00
2023-03-20T07:53:54.816Z,16.00
2023-03-20T07:54:57.395Z,18.00
2023-03-20T07:55:59.021Z,18.25
2023-03-20T07:57:01.701Z,16.50
2023-03-20T07:58:04.458Z,20.00
2023-03-20T07:59:06.729Z,19.00
2023-03-20T08:00:10.507Z,18.75
2023-03-20T08:01:12.181Z,18.00
2023-03-20T08:02:15.824Z,18.50
2023-03-20T08:03:18.528Z,19.25
2023-03-20T08:04:22.618Z,23.75
2023-03-20T08:05:25.878Z,19.75
2023-03-20T08:06:29.203Z,19.50
2023-03-20T08:07:32.043Z,18.00
2023-03-20T08:08:34.909Z,17.75
2023-03-20T08:09:37.526Z,20.25
2023-03-20T08:10:39.152Z,24.00
2023-03-20T08:11:41.788Z,18.00
2023-03-20T08:12:43.423Z,19.75
2023-03-20T08:13:46.109Z,18.00
2023-03-20T08:14:47.754Z,19.75
2023-03-20T08:15:50.374Z,18.25
2023-03-20T08:17:10.323Z,18.00
2023-03-20T08:18:15.569Z,16.25
2023-03-20T08:19:18.152Z,18.50
2023-03-20T08:20:19.968Z,18.75
2023-03-20T08:21:22.555Z,18.25
2023-03-20T08:22:26.858Z,17.00
2023-03-20T08:23:28.480Z,18.00
2023-03-20T08:24:31.064Z,17.00
2023-03-20T08:25:34.164Z,18.25
2023-03-20T08:26:36.874Z,19.25
2023-03-20T08:27:38.920Z,20.25
2023-03-20T08:28:47.412Z,17.25
2023-03-20T08:29:50.860Z,18.25
2023-03-20T08:30:52.588Z,15.00
2023-03-20T08:31:56.008Z,19.00
2023-03-20T08:32:59.338Z,15.25
2023-03-20T08:34:02.045Z,16.50
2023-03-20T08:35:03.891Z,17.25
2023-03-20T08:36:07.561Z,18.50
2023-03-20T08:37:10.660Z,16.00
2023-03-20T08:38:14.923Z,14.75
2023-03-20T08:39:17.587Z,19.75
2023-03-20T08:40:20.333Z,16.25
2023-03-20T08:41:22.989Z,17.25
2023-03-20T08:42:25.621Z,15.75
2023-03-20T08:43:27.297Z,19.75
2023-03-20T08:44:30.470Z,21.25
2023-03-20T08:45:33.134Z,17.75
2023-03-20T08:46:35.840Z,16.50
2023-03-20T08:47:39.583Z,15.50
2023-03-20T08:48:43.359Z,17.75
2023-03-20T08:49:46.276Z,16.00
2023-03-20T08:50:48.934Z,18.00
2023-03-20T08:51:51.561Z,16.50
2023-03-20T08:52:53.209Z,13.25
2023-03-20T08:53:57.234Z,13.25
2023-03-20T08:54:58.896Z,16.00
2023-03-20T08:56:01.637Z,16.50
2023-03-20T08:57:04.294Z,20.25
2023-03-20T08:58:06.145Z,17.75
2023-03-20T08:59:08.827Z,15.00
2023-03-20T09:00:12.890Z,16.00
2023-03-20T09:01:16.391Z,17.00
2023-03-20T09:02:18.208Z,15.00
2023-03-20T09:03:21.619Z,15.00
2023-03-20T09:04:24.923Z,13.00
2023-03-20T09:05:27.586Z,15.00
2023-03-20T09:06:29.295Z,17.25
2023-03-20T09:07:31.926Z,16.00
2023-03-20T09:08:34.625Z,14.25
2023-03-20T09:09:37.831Z,16.50
2023-03-20T09:10:40.661Z,13.00
2023-03-20T09:11:43.275Z,13.00
2023-03-20T09:12:46.081Z,14.50
2023-03-20T09:13:48.724Z,13.50
2023-03-20T09:14:51.387Z,15.50
2023-03-20T09:15:54.200Z,10.50
2023-03-20T09:16:56.038Z,13.00
2023-03-20T09:17:59.945Z,13.00
2023-03-20T09:19:03.453Z,15.50
2023-03-20T09:20:06.320Z,12.50
2023-03-20T09:21:09.188Z,9.00
2023-03-20T09:22:12.913Z,12.25
2023-03-20T09:23:14.572Z,12.00
2023-03-20T09:24:17.360Z,13.00
2023-03-20T09:25:21.381Z,12.00
2023-03-20T09:26:23.046Z,12.75
2023-03-20T09:27:25.678Z,12.75
2023-03-20T09:28:28.306Z,10.50
2023-03-20T09:29:30.016Z,12.00
2023-03-20T09:30:32.670Z,14.50
2023-03-20T09:31:34.404Z,11.75
2023-03-20T09:32:37.235Z,11.75
2023-03-20T09:33:39.859Z,10.50
2023-03-20T09:34:41.658Z,13.00
2023-03-20T09:35:44.347Z,12.50
2023-03-20T09:36:46.985Z,15.00
2023-03-20T09:37:48.741Z,12.00
2023-03-20T09:38:51.738Z,12.00
2023-03-20T09:39:53.374Z,13.00
2023-03-20T09:40:58.034Z,11.75
2023-03-20T09:42:00.951Z,13.00
2023-03-20T09:43:07.033Z,13.00
2023-03-20T09:44:13.500Z,10.25
2023-03-20T09:45:17.202Z,12.50
2023-03-20T09:46:27.348Z,10.00
2023-03-20T09:47:33.441Z,11.50
2023-03-20T09:48:37.752Z,13.00
2023-03-20T09:49:43.595Z,15.75
2023-03-20T09:50:50.212Z,16.00
2023-03-20T09:51:53.193Z,16.00
2023-03-20T09:52:58.941Z,13.00
2023-03-20T09:54:03.605Z,17.00
2023-03-20T09:55:07.891Z,14.75
2023-03-20T09:56:15.376Z,17.00
2023-03-20T09:57:19.688Z,15.00
2023-03-20T09:58:24.142Z,16.00
2023-03-20T09:59:26.007Z,16.00
2023-03-20T10:00:29.817Z,15.00
2023-03-20T10:01:32.872Z,16.75
2023-03-20T10:02:39.236Z,16.75
2023-03-20T10:03:45.690Z,14.50
2023-03-20T10:04:47.625Z,15.75
2023-03-20T10:05:53.406Z,14.00
2023-03-20T10:06:55.130Z,13.75
2023-03-20T10:07:58.978Z,14.00
2023-03-20T10:09:01.612Z,13.50
2023-03-20T10:10:04.479Z,11.00
2023-03-20T10:11:16.097Z,14.00
2023-03-20T10:12:33.240Z,13.50
2023-03-20T10:13:45.141Z,13.00
2023-03-20T10:14:52.808Z,13.00
2023-03-20T10:15:56.102Z,11.00
2023-03-20T10:17:26.365Z,10.00
2023-03-20T10:18:29.294Z,8.75
2023-03-20T10:19:31.458Z,12.75
2023-03-20T10:20:35.508Z,10.25
2023-03-20T10:21:39.634Z,9.75
2023-03-20T10:22:44.072Z,9.00
2023-03-20T10:23:50.262Z,9.75
2023-03-20T10:24:55.492Z,8.00
2023-03-20T10:25:59.636Z,8.50
2023-03-20T10:27:09.513Z,7.75
2023-03-20T10:28:12.170Z,10.00
2023-03-20T10:29:17.853Z,10.00
2023-03-20T10:30:38.525Z,10.25
2023-03-20T10:31:43.478Z,7.25
2023-03-20T10:32:48.726Z,8.00
2023-03-20T10:33:56.356Z,7.00
2023-03-20T10:35:02.972Z,10.00
2023-03-20T10:36:18.620Z,10.00
2023-03-20T10:37:32.317Z,8.75
2023-03-20T10:38:37.162Z,7.75
2023-03-20T10:39:50.900Z,7.75
2023-03-20T10:40:53.541Z,7.25
2023-03-20T10:41:56.118Z,7.25
2023-03-20T10:43:01.557Z,9.50
2023-03-20T10:44:03.598Z,9.25
2023-03-20T10:45:08.359Z,10.25
2023-03-20T10:46:13.437Z,8.00
2023-03-20T10:47:16.576Z,8.00
2023-03-20T10:48:22.652Z,8.00
2023-03-20T10:49:29.669Z,7.50
2023-03-20T10:50:34.251Z,6.00
2023-03-20T10:51:41.067Z,6.75
2023-03-20T10:52:42.736Z,7.00
2023-03-20T10:53:47.989Z,7.25
2023-03-20T10:54:50.536Z,6.00
2023-03-20T10:55:53.179Z,7.75
2023-03-20T10:56:57.025Z,5.75
2023-03-20T10:58:03.238Z,5.00
2023-03-20T10:59:08.298Z,7.00
2023-03-20T11:00:15.409Z,5.00
2023-03-20T11:01:18.135Z,5.00
2023-03-20T11:02:22.223Z,5.00
2023-03-20T11:03:25.001Z,5.00
2023-03-20T11:04:27.699Z,8.00
2023-03-20T11:05:30.619Z,8.00
2023-03-20T11:06:34.489Z,7.00
2023-03-20T11:07:37.156Z,7.00
2023-03-20T11:08:40.808Z,7.00
2023-03-20T11:09:43.478Z,7.00
2023-03-20T11:10:46.260Z,6.00
2023-03-20T11:11:49.340Z,6.50
2023-03-20T11:12:52.285Z,5.00
2023-03-20T11:13:56.986Z,6.00
2023-03-20T11:14:59.774Z,6.00
2023-03-20T11:16:11.494Z,5.00
2023-03-20T11:17:14.486Z,4.75
2023-03-20T11:18:16.334Z,4.00
2023-03-20T11:19:19.983Z,4.00
2023-03-20T11:20:21.751Z,2.00
2023-03-20T11:21:26.041Z,4.25
2023-03-20T11:22:27.757Z,5.00
2023-03-20T11:23:33.274Z,3.00
2023-03-20T11:24:38.372Z,2.00
2023-03-20T11:25:46.913Z,4.00
2023-03-20T11:26:49.591Z,4.00
2023-03-20T11:27:51.249Z,2.00
2023-03-20T11:28:54.793Z,4.00
2023-03-20T11:29:57.907Z,2.00
2023-03-20T11:31:04.780Z,2.75
2023-03-20T11:32:24.084Z,1.00
2023-03-20T11:33:26.316Z,2.75
2023-03-20T11:34:29.100Z,2.00
2023-03-20T11:35:32.418Z,2.25
2023-03-20T11:36:36.649Z,2.00
2023-03-20T11:37:44.431Z,1.00
2023-03-20T11:38:47.374Z,2.00
2023-03-20T11:40:00.229Z,4.00
2023-03-20T11:41:02.960Z,3.75
2023-03-20T11:42:05.632Z,3.25
2023-03-20T11:43:12.109Z,4.00
2023-03-20T11:44:23.944Z,4.00
2023-03-20T11:45:27.338Z,3.00
2023-03-20T11:46:30.082Z,4.00
2023-03-20T11:47:33.473Z,3.00
2023-03-20T11:48:38.629Z,5.00
2023-03-20T11:49:45.743Z,4.00
2023-03-20T11:50:50.470Z,4.75
2023-03-20T11:51:52.414Z,5.00
2023-03-20T11:52:55.023Z,5.00
2023-03-20T11:54:00.720Z,3.00
2023-03-20T11:55:06.830Z,3.75
2023-03-20T11:56:11.089Z,4.00
2023-03-20T11:57:25.389Z,4.00
2023-03-20T11:58:29.050Z,4.00
2023-03-20T11:59:33.927Z,3.75
2023-03-20T12:00:38.598Z,4.00
2023-03-20T12:01:44.765Z,4.50
2023-03-20T12:02:46.646Z,5.00
2023-03-20T12:03:55.557Z,4.00
2023-03-20T12:05:00.782Z,4.00
2023-03-20T12:06:02.575Z,3.75
2023-03-20T12:07:10.981Z,4.00
2023-03-20T12:08:15.513Z,2.75
2023-03-20T12:09:28.400Z,2.25
2023-03-20T12:10:33.532Z,3.25
2023-03-20T12:11:41.680Z,4.00
2023-03-20T12:12:46.658Z,4.00
2023-03-20T12:13:48.786Z,4.00
2023-03-20T12:14:55.613Z,4.00
2023-03-20T12:15:59.916Z,2.00
2023-03-20T12:17:15.702Z,2.25
2023-03-20T12:18:19.525Z,4.00
2023-03-20T12:19:22.623Z,4.00
2023-03-20T12:20:32.050Z,2.00
2023-03-20T12:21:36.440Z,4.50
2023-03-20T12:22:39.934Z,4.75
2023-03-20T12:23:44.450Z,4.00
2023-03-20T12:24:47.920Z,4.25
2023-03-20T12:25:52.374Z,4.00
2023-03-20T12:26:56.278Z,3.00
2023-03-20T12:28:03.834Z,5.00
2023-03-20T12:29:08.139Z,4.00
2023-03-20T12:30:12.663Z,4.00
2023-03-20T12:31:23.023Z,4.00
2023-03-20T12:32:27.187Z,4.25
2023-03-20T12:33:36.278Z,4.00
2023-03-20T12:34:39.508Z,4.00
2023-03-20T12:35:42.971Z,4.00
2023-03-20T12:36:46.974Z,4.00
2023-03-20T12:37:48.745Z,7.00
2023-03-20T12:38:51.838Z,4.00
2023-03-20T12:39:54.765Z,5.00
2023-03-20T12:40:59.670Z,4.00
2023-03-20T12:42:09.452Z,7.00
2023-03-20T12:43:14.703Z,5.25
2023-03-20T12:44:22.680Z,4.00
2023-03-20T12:45:26.115Z,5.00
2023-03-20T12:46:32.165Z,5.00
2023-03-20T12:47:47.734Z,4.50
2023-03-20T12:49:04.621Z,4.75
2023-03-20T12:50:10.008Z,2.00
2023-03-20T12:51:15.273Z,5.00
2023-03-20T12:52:20.838Z,4.50
2023-03-20T12:53:36.264Z,7.00
2023-03-20T12:54:52.364Z,6.75
2023-03-20T12:56:01.364Z,5.25
2023-03-20T12:57:08.086Z,5.00
2023-03-20T12:58:18.397Z,5.00
2023-03-20T12:59:22.509Z,5.25
2023-03-20T13:00:28.924Z,5.50
2023-03-20T13:01:33.873Z,7.00
2023-03-20T13:02:42.954Z,6.50
2023-03-20T13:04:05.092Z,5.75
2023-03-20T13:05:14.003Z,5.75
2023-03-20T13:06:18.468Z,5.25
2023-03-20T13:07:20.876Z,4.25
2023-03-20T13:08:33.775Z,7.00
2023-03-20T13:09:51.281Z,7.00
2023-03-20T13:10:57.341Z,5.00
2023-03-20T13:12:02.421Z,5.75
2023-03-20T13:13:11.169Z,5.00
2023-03-20T13:14:15.447Z,5.25
2023-03-20T13:15:24.402Z,7.00
2023-03-20T13:16:34.685Z,5.00
2023-03-20T13:17:38.628Z,6.00
2023-03-20T13:18:46.135Z,7.00
2023-03-20T13:19:52.324Z,7.00
2023-03-20T13:20:55.172Z,6.00
2023-03-20T13:21:59.934Z,6.25
2023-03-20T13:23:10.393Z,7.00
2023-03-20T13:24:21.519Z,5.75
2023-03-20T13:25:35.132Z,5.75
2023-03-20T13:26:39.622Z,4.00
2023-03-20T13:27:42.431Z,6.00
2023-03-20T13:28:50.447Z,4.00
2023-03-20T13:29:54.854Z,7.00
2023-03-20T13:30:58.464Z,4.00
2023-03-20T13:32:09.282Z,5.00
2023-03-20T13:33:33.581Z,4.00
2023-03-20T13:34:44.757Z,6.00
2023-03-20T13:35:47.813Z,4.25
2023-03-20T13:36:55.357Z,4.25
2023-03-20T13:37:58.778Z,4.00
2023-03-20T13:39:03.975Z,5.00
2023-03-20T13:40:12.354Z,4.00
2023-03-20T13:41:14.961Z,4.00
2023-03-20T13:42:18.709Z,5.00
2023-03-20T13:43:25.413Z,5.75
2023-03-20T13:44:29.277Z,3.75
2023-03-20T13:45:35.742Z,4.50
2023-03-20T13:46:41.451Z,5.00
2023-03-20T13:47:45.458Z,7.00
2023-03-20T13:48:48.078Z,5.00
2023-03-20T13:49:53.643Z,5.75
2023-03-20T13:51:02.052Z,4.00
2023-03-20T13:52:07.983Z,4.00
2023-03-20T13:53:16.890Z,6.50
2023-03-20T13:54:29.114Z,5.00
2023-03-20T13:55:32.588Z,4.00
2023-03-20T13:56:39.711Z,5.00
2023-03-20T13:57:50.216Z,5.25